createdAt,value
2018-03-24T00:00:21.012Z,0
2018-03-24T00:01:06.104Z,0
2018-03-24T00:02:20.778Z,0
2018-03-24T00:03:06.416Z,0
2018-03-24T00:04:06.159Z,0
2018-03-24T00:05:06.167Z,0
2018-03-24T00:06:06.180Z,0
2018-03-24T00:07:21.111Z,0
2018-03-24T00:08:21.182Z,0
2018-03-24T00:09:06.495Z,0
2018-03-24T00:10:06.242Z,0
2018-03-24T00:11:06.255Z,0
2018-03-24T00:12:06.274Z,0
2018-03-24T00:13:06.299Z,0
2018-03-24T00:14:06.406Z,0
2018-03-24T00:15:20.713Z,0
2018-03-24T00:16:06.593Z,0
2018-03-24T00:17:06.346Z,0
2018-03-24T00:19:06.380Z,0
2018-03-24T00:20:06.396Z,0
2018-03-24T00:21:06.413Z,0
2018-03-24T00:22:06.172Z,0
2018-03-24T00:23:06.439Z,0
2018-03-24T00:24:21.365Z,0
2018-03-24T00:25:21.377Z,0
2018-03-24T00:26:06.749Z,0
2018-03-24T00:27:06.759Z,0
2018-03-24T00:28:06.512Z,0
2018-03-24T00:29:06.787Z,0
2018-03-24T00:30:06.801Z,0
2018-03-24T00:32:06.574Z,0
2018-03-24T00:33:21.506Z,0
2018-03-24T00:34:06.857Z,0
2018-03-24T00:36:06.896Z,0
2018-03-24T00:37:06.644Z,0
2018-03-24T00:38:06.660Z,0
2018-03-24T00:40:21.603Z,0
2018-03-24T00:42:06.724Z,0
2018-03-24T00:43:06.785Z,0
2018-03-24T00:45:07.037Z,0
2018-03-24T00:46:06.789Z,0
2018-03-24T00:47:21.708Z,0
2018-03-24T00:48:06.812Z,0
2018-03-24T00:50:21.495Z,0
2018-03-24T00:51:06.854Z,0
2018-03-24T00:52:06.875Z,0
2018-03-24T00:53:07.145Z,0
2018-03-24T00:54:06.900Z,0
2018-03-24T00:55:21.580Z,0
2018-03-24T00:56:07.224Z,0
2018-03-24T00:57:07.265Z,0
2018-03-24T00:58:21.878Z,0
2018-03-24T01:00:06.727Z,0
2018-03-24T01:01:06.482Z,0
2018-03-24T01:02:07.288Z,0
2018-03-24T01:03:21.948Z,0
2018-03-24T01:04:06.788Z,0
2018-03-24T01:05:07.064Z,0
2018-03-24T01:06:21.996Z,0
2018-03-24T01:07:07.353Z,0
2018-03-24T01:08:07.104Z,0
2018-03-24T01:09:07.377Z,0
2018-03-24T01:10:22.051Z,0
2018-03-24T01:11:06.892Z,0
2018-03-24T01:12:07.428Z,0
2018-03-24T01:13:07.190Z,0
2018-03-24T01:14:06.934Z,0
2018-03-24T01:15:07.209Z,0
2018-03-24T01:16:07.483Z,0
2018-03-24T01:17:06.984Z,0
2018-03-24T01:18:07.517Z,0
2018-03-24T01:19:22.182Z,0
2018-03-24T01:20:07.279Z,0
2018-03-24T01:22:07.572Z,0
2018-03-24T01:23:21.988Z,0
2018-03-24T01:24:22.260Z,0
2018-03-24T01:25:07.357Z,0
2018-03-24T01:26:07.388Z,0
2018-03-24T01:27:07.643Z,0
2018-03-24T01:28:07.674Z,0
2018-03-24T01:29:22.082Z,0
2018-03-24T01:30:07.446Z,0
2018-03-24T01:31:07.189Z,0
2018-03-24T01:32:07.206Z,0
2018-03-24T01:33:07.731Z,0
2018-03-24T01:34:07.818Z,0
2018-03-24T01:35:22.417Z,0
2018-03-24T01:36:07.780Z,0
2018-03-24T01:37:07.797Z,0
2018-03-24T01:38:07.818Z,0
2018-03-24T01:39:07.821Z,0
2018-03-24T01:40:07.317Z,0
2018-03-24T01:41:07.595Z,0
2018-03-24T01:42:07.346Z,0
2018-03-24T01:43:22.546Z,0
2018-03-24T01:44:07.481Z,0
2018-03-24T01:45:07.397Z,0
2018-03-24T01:47:07.683Z,0
2018-03-24T01:48:07.958Z,0
2018-03-24T01:49:07.714Z,0
2018-03-24T01:50:22.653Z,0
2018-03-24T01:51:07.485Z,0
2018-03-24T01:52:07.859Z,0
2018-03-24T01:53:07.774Z,0
2018-03-24T01:54:07.794Z,0
2018-03-24T01:55:08.063Z,0
2018-03-24T01:57:08.092Z,0
2018-03-24T01:58:07.845Z,0
2018-03-24T01:59:08.120Z,0
2018-03-24T02:00:22.538Z,0
2018-03-24T02:01:08.152Z,0
2018-03-24T02:02:08.011Z,0
2018-03-24T02:03:08.192Z,0
2018-03-24T02:04:22.853Z,0
2018-03-24T02:05:07.952Z,0
2018-03-24T02:06:08.230Z,0
2018-03-24T02:07:07.979Z,0
2018-03-24T02:08:07.734Z,0
2018-03-24T02:09:22.938Z,0
2018-03-24T02:10:08.285Z,0
2018-03-24T02:11:22.697Z,0
2018-03-24T02:12:08.052Z,0
2018-03-24T02:13:07.809Z,0
2018-03-24T02:14:08.084Z,0
2018-03-24T02:15:07.579Z,0
2018-03-24T02:16:08.384Z,0
2018-03-24T02:17:07.869Z,0
2018-03-24T02:18:23.061Z,0
2018-03-24T02:19:07.638Z,0
2018-03-24T02:20:08.449Z,0
2018-03-24T02:21:08.186Z,0
2018-03-24T02:22:37.775Z,0
2018-03-24T02:23:22.873Z,0
2018-03-24T02:24:08.489Z,0
2018-03-24T02:25:08.504Z,0
2018-03-24T02:26:08.534Z,0
2018-03-24T02:27:08.016Z,0
2018-03-24T02:28:08.291Z,0
2018-03-24T02:29:08.302Z,0
2018-03-24T02:30:08.596Z,0
2018-03-24T02:31:08.352Z,0
2018-03-24T02:32:08.617Z,0
2018-03-24T02:33:23.041Z,0
2018-03-24T02:34:08.643Z,0
2018-03-24T02:35:08.393Z,0
2018-03-24T02:36:08.780Z,0
2018-03-24T02:37:08.172Z,0
2018-03-24T02:38:23.376Z,0
2018-03-24T02:39:08.736Z,0
2018-03-24T02:40:08.735Z,0
2018-03-24T02:41:08.759Z,0
2018-03-24T02:42:08.506Z,0
2018-03-24T02:43:08.776Z,0
2018-03-24T02:44:22.925Z,0
2018-03-24T02:45:08.828Z,0
2018-03-24T02:46:08.834Z,0
2018-03-24T02:47:08.835Z,0
2018-03-24T02:48:08.866Z,0
2018-03-24T02:49:08.605Z,0
2018-03-24T02:50:08.627Z,0
2018-03-24T02:51:08.659Z,0
2018-03-24T02:52:23.569Z,0
2018-03-24T02:53:08.663Z,0
2018-03-24T02:54:38.249Z,0
2018-03-24T02:55:08.689Z,0
2018-03-24T02:56:08.187Z,0
2018-03-24T02:57:08.982Z,0
2018-03-24T02:58:08.321Z,0
2018-03-24T02:59:08.761Z,0
2018-03-24T03:01:09.048Z,0
2018-03-24T03:02:09.076Z,0
2018-03-24T03:03:08.807Z,0
2018-03-24T03:04:08.571Z,0
2018-03-24T03:05:23.502Z,0
2018-03-24T03:06:23.516Z,0
2018-03-24T03:07:09.127Z,0
2018-03-24T03:08:08.883Z,0
2018-03-24T03:09:09.169Z,0
2018-03-24T03:10:38.485Z,0
2018-03-24T03:11:23.583Z,0
2018-03-24T03:12:09.202Z,0
2018-03-24T03:13:08.979Z,0
2018-03-24T03:14:09.239Z,0
2018-03-24T03:15:08.724Z,0
2018-03-24T03:16:23.396Z,0
2018-03-24T03:17:23.930Z,0
2018-03-24T03:18:09.288Z,0
2018-03-24T03:19:09.299Z,0
2018-03-24T03:20:09.057Z,0
2018-03-24T03:21:09.069Z,0
2018-03-24T03:22:09.419Z,0
2018-03-24T03:23:09.101Z,0
2018-03-24T03:24:08.597Z,0
2018-03-24T03:25:24.047Z,0
2018-03-24T03:26:08.885Z,0
2018-03-24T03:27:09.195Z,0
2018-03-24T03:28:09.273Z,0
2018-03-24T03:29:09.192Z,0
2018-03-24T03:30:09.469Z,0
2018-03-24T03:31:23.619Z,0
2018-03-24T03:32:24.165Z,0
2018-03-24T03:33:09.315Z,0
2018-03-24T03:34:09.004Z,0
2018-03-24T03:35:09.041Z,0
2018-03-24T03:36:09.295Z,0
2018-03-24T03:37:09.311Z,0
2018-03-24T03:38:09.068Z,0
2018-03-24T03:39:09.351Z,0
2018-03-24T03:40:09.611Z,0
2018-03-24T03:41:09.631Z,0
2018-03-24T03:43:09.658Z,0
2018-03-24T03:44:09.678Z,0
2018-03-24T03:45:09.433Z,0
2018-03-24T03:46:09.442Z,0
2018-03-24T03:47:09.459Z,0
2018-03-24T03:48:09.470Z,0
2018-03-24T03:49:09.746Z,0
2018-03-24T03:50:09.500Z,0
2018-03-24T03:51:24.173Z,0
2018-03-24T03:52:09.790Z,0
2018-03-24T03:53:09.541Z,0
2018-03-24T03:54:09.563Z,0
2018-03-24T03:55:09.839Z,0
2018-03-24T03:56:09.591Z,0
2018-03-24T03:57:39.181Z,0
2018-03-24T03:58:09.881Z,0
2018-03-24T03:59:09.638Z,0
2018-03-24T04:00:09.649Z,0
2018-03-24T04:01:24.582Z,0
2018-03-24T04:03:09.963Z,0
2018-03-24T04:04:09.962Z,0
2018-03-24T04:05:09.463Z,0
2018-03-24T04:06:09.476Z,0
2018-03-24T04:07:10.007Z,0
2018-03-24T04:08:10.028Z,0
2018-03-24T04:09:09.530Z,0
2018-03-24T04:10:09.796Z,0
2018-03-24T04:11:09.806Z,0
2018-03-24T04:12:09.562Z,0
2018-03-24T04:13:39.413Z,0
2018-03-24T04:14:10.111Z,0
2018-03-24T04:15:09.869Z,0
2018-03-24T04:16:24.539Z,0
2018-03-24T04:17:10.161Z,0
2018-03-24T04:18:10.178Z,0
2018-03-24T04:19:24.331Z,0
2018-03-24T04:20:24.862Z,0
2018-03-24T04:21:09.714Z,0
2018-03-24T04:22:09.970Z,0
2018-03-24T04:23:10.257Z,0
2018-03-24T04:24:10.265Z,0
2018-03-24T04:25:10.020Z,0
2018-03-24T04:27:09.783Z,0
2018-03-24T04:28:10.108Z,0
2018-03-24T04:30:10.360Z,0
2018-03-24T04:31:24.760Z,0
2018-03-24T04:32:10.376Z,0
2018-03-24T04:33:09.873Z,0
2018-03-24T04:34:10.153Z,4
2018-03-24T04:35:25.087Z,4
2018-03-24T04:37:10.458Z,4
2018-03-24T04:38:09.945Z,4
2018-03-24T04:39:10.217Z,4
2018-03-24T04:40:09.983Z,4
2018-03-24T04:41:10.250Z,4
2018-03-24T04:42:10.262Z,8
2018-03-24T04:43:10.538Z,4
2018-03-24T04:44:10.034Z,8
2018-03-24T04:45:39.884Z,8
2018-03-24T04:46:10.585Z,12
2018-03-24T04:47:10.596Z,12
2018-03-24T04:48:10.612Z,12
2018-03-24T04:49:10.635Z,16
2018-03-24T04:50:10.384Z,16
2018-03-24T04:51:10.664Z,20
2018-03-24T04:52:25.327Z,20
2018-03-24T04:53:10.686Z,20
2018-03-24T04:54:10.440Z,24
2018-03-24T04:55:10.460Z,28
2018-03-24T04:56:10.730Z,28
2018-03-24T04:57:10.744Z,28
2018-03-24T04:58:10.505Z,36
2018-03-24T04:59:10.514Z,36
2018-03-24T05:00:25.443Z,40
2018-03-24T05:01:10.549Z,40
2018-03-24T05:02:10.374Z,44
2018-03-24T05:03:25.487Z,48
2018-03-24T05:04:25.509Z,56
2018-03-24T05:05:10.604Z,60
2018-03-24T05:06:10.873Z,64
2018-03-24T05:07:10.894Z,68
2018-03-24T05:08:25.561Z,80
2018-03-24T05:09:10.927Z,80
2018-03-24T05:10:10.681Z,88
2018-03-24T05:11:10.946Z,96
2018-03-24T05:12:10.965Z,100
2018-03-24T05:13:10.984Z,104
2018-03-24T05:14:10.734Z,112
2018-03-24T05:15:11.008Z,120
2018-03-24T05:16:11.032Z,132
2018-03-24T05:17:11.033Z,140
2018-03-24T05:18:11.051Z,148
2018-03-24T05:19:10.807Z,160
2018-03-24T05:20:11.087Z,168
2018-03-24T05:21:10.834Z,184
2018-03-24T05:22:10.849Z,192
2018-03-24T05:23:25.792Z,208
2018-03-24T05:24:25.797Z,224
2018-03-24T05:25:11.155Z,232
2018-03-24T05:26:25.568Z,244
2018-03-24T05:27:10.933Z,256
2018-03-24T05:28:11.203Z,260
2018-03-24T05:29:11.226Z,268
2018-03-24T05:30:11.247Z,272
2018-03-24T05:31:10.723Z,276
2018-03-24T05:32:40.573Z,300
2018-03-24T05:33:11.269Z,308
2018-03-24T05:34:10.770Z,328
2018-03-24T05:35:11.300Z,352
2018-03-24T05:36:10.797Z,376
2018-03-24T05:37:11.331Z,400
2018-03-24T05:38:11.187Z,424
2018-03-24T05:39:11.512Z,452
2018-03-24T05:40:26.034Z,484
2018-03-24T05:41:11.400Z,512
2018-03-24T05:42:11.408Z,540
2018-03-24T05:43:11.418Z,572
2018-03-24T05:44:10.654Z,600
2018-03-24T05:45:11.448Z,624
2018-03-24T05:46:10.943Z,644
2018-03-24T05:47:11.475Z,664
2018-03-24T05:48:26.148Z,692
2018-03-24T05:49:11.504Z,712
2018-03-24T05:50:11.525Z,728
2018-03-24T05:51:11.543Z,752
2018-03-24T05:52:11.549Z,768
2018-03-24T05:53:11.315Z,784
2018-03-24T05:54:26.244Z,804
2018-03-24T05:55:26.266Z,820
2018-03-24T05:56:11.351Z,824
2018-03-24T05:57:26.282Z,824
2018-03-24T05:58:11.699Z,828
2018-03-24T05:59:11.654Z,836
2018-03-24T06:00:11.411Z,856
2018-03-24T06:01:11.167Z,880
2018-03-24T06:02:11.458Z,904
2018-03-24T06:03:11.455Z,928
2018-03-24T06:04:26.390Z,964
2018-03-24T06:06:11.764Z,1024
2018-03-24T06:07:11.772Z,1048
2018-03-24T06:09:11.540Z,1076
2018-03-24T06:10:11.298Z,1084
2018-03-24T06:11:11.575Z,1088
2018-03-24T06:12:11.855Z,1096
2018-03-24T06:13:11.860Z,1108
2018-03-24T06:15:11.894Z,1132
2018-03-24T06:16:11.917Z,1136
2018-03-24T06:17:11.922Z,1144
2018-03-24T06:18:11.939Z,1160
2018-03-24T06:19:11.692Z,1176
2018-03-24T06:20:26.621Z,1200
2018-03-24T06:22:12.130Z,1240
2018-03-24T06:23:26.409Z,1272
2018-03-24T06:24:12.025Z,1284
2018-03-24T06:25:11.786Z,1312
2018-03-24T06:26:26.194Z,1340
2018-03-24T06:27:12.074Z,1356
2018-03-24T06:28:26.748Z,1364
2018-03-24T06:29:12.098Z,1372
2018-03-24T06:30:12.118Z,1384
2018-03-24T06:31:12.133Z,1404
2018-03-24T06:32:11.888Z,1424
2018-03-24T06:33:12.158Z,1456
2018-03-24T06:34:12.183Z,1484
2018-03-24T06:35:26.589Z,1524
2018-03-24T06:36:12.209Z,1552
2018-03-24T06:37:12.223Z,1600
2018-03-24T06:38:12.036Z,1648
2018-03-24T06:39:12.251Z,1700
2018-03-24T06:40:12.262Z,1748
2018-03-24T06:41:12.279Z,1804
2018-03-24T06:42:12.035Z,1848
2018-03-24T06:43:12.310Z,1896
2018-03-24T06:44:11.805Z,1936
2018-03-24T06:45:12.343Z,1984
2018-03-24T06:46:11.839Z,2028
2018-03-24T06:47:12.376Z,2076
2018-03-24T06:48:12.403Z,2120
2018-03-24T06:49:12.399Z,2160
2018-03-24T06:50:12.415Z,2208
2018-03-24T06:51:12.173Z,2256
2018-03-24T06:52:12.314Z,2296
2018-03-24T06:53:12.461Z,2352
2018-03-24T06:54:12.215Z,2424
2018-03-24T06:55:12.230Z,2484
2018-03-24T06:56:12.247Z,2528
2018-03-24T06:57:12.525Z,2552
2018-03-24T06:59:12.554Z,2600
2018-03-24T07:00:12.309Z,2616
2018-03-24T07:01:12.581Z,2624
2018-03-24T07:02:12.598Z,2640
2018-03-24T07:03:12.360Z,2664
2018-03-24T07:04:12.369Z,2696
2018-03-24T07:05:12.653Z,2712
2018-03-24T07:06:12.663Z,2736
2018-03-24T07:07:27.070Z,2772
2018-03-24T07:08:27.087Z,2784
2018-03-24T07:10:12.198Z,2796
2018-03-24T07:11:12.733Z,2824
2018-03-24T07:12:12.748Z,2844
2018-03-24T07:13:12.509Z,2884
2018-03-24T07:14:12.521Z,2928
2018-03-24T07:15:27.293Z,2964
2018-03-24T07:16:12.815Z,2972
2018-03-24T07:17:12.830Z,2968
2018-03-24T07:18:12.840Z,2952
2018-03-24T07:19:12.595Z,2936
2018-03-24T07:20:12.875Z,2936
2018-03-24T07:21:12.902Z,2944
2018-03-24T07:22:12.640Z,2956
2018-03-24T07:23:27.316Z,2996
2018-03-24T07:25:12.690Z,3068
2018-03-24T07:26:12.708Z,3120
2018-03-24T07:27:12.722Z,3156
2018-03-24T07:28:12.477Z,3176
2018-03-24T07:29:12.757Z,3212
2018-03-24T07:30:13.028Z,3240
2018-03-24T07:31:13.041Z,3264
2018-03-24T07:32:13.056Z,3296
2018-03-24T07:33:13.082Z,3324
2018-03-24T07:34:27.750Z,3332
2018-03-24T07:35:13.099Z,3336
2018-03-24T07:36:12.340Z,3344
2018-03-24T07:37:13.131Z,3348
2018-03-24T07:39:27.825Z,3416
2018-03-24T07:40:13.184Z,3424
2018-03-24T07:41:12.940Z,3444
2018-03-24T07:42:13.211Z,3484
2018-03-24T07:43:12.707Z,3560
2018-03-24T07:44:13.243Z,3648
2018-03-24T07:45:27.916Z,3736
2018-03-24T07:46:13.280Z,3784
2018-03-24T07:47:13.034Z,3844
2018-03-24T07:48:27.960Z,3868
2018-03-24T07:50:13.093Z,3780
2018-03-24T07:51:28.011Z,3756
2018-03-24T07:52:12.844Z,3736
2018-03-24T07:53:13.131Z,3708
2018-03-24T07:54:13.399Z,3680
2018-03-24T07:55:27.812Z,3656
2018-03-24T07:56:13.172Z,3644
2018-03-24T07:57:13.450Z,3656
2018-03-24T07:58:13.545Z,3672
2018-03-24T07:59:13.481Z,3656
2018-03-24T08:00:13.241Z,3624
2018-03-24T08:01:27.910Z,3644
2018-03-24T08:02:13.279Z,3652
2018-03-24T08:03:13.282Z,3660
2018-03-24T08:04:13.697Z,3660
2018-03-24T08:05:13.580Z,3680
2018-03-24T08:06:13.338Z,3716
2018-03-24T08:07:13.606Z,3736
2018-03-24T08:08:13.620Z,3736
2018-03-24T08:09:13.641Z,3752
2018-03-24T08:10:28.307Z,3808
2018-03-24T08:12:13.168Z,3912
2018-03-24T08:13:13.181Z,3992
2018-03-24T08:14:13.200Z,4064
2018-03-24T08:15:13.749Z,4148
2018-03-24T08:16:13.498Z,4220
2018-03-24T08:17:13.509Z,4308
2018-03-24T08:18:13.778Z,4392
2018-03-24T08:19:13.796Z,4456
2018-03-24T08:20:13.295Z,4492
2018-03-24T08:21:13.827Z,4508
2018-03-24T08:22:13.586Z,4492
2018-03-24T08:23:28.529Z,4448
2018-03-24T08:24:13.617Z,4424
2018-03-24T08:25:28.551Z,4440
2018-03-24T08:26:13.658Z,4452
2018-03-24T08:27:13.666Z,4496
2018-03-24T08:29:13.696Z,4692
2018-03-24T08:30:13.726Z,4780
2018-03-24T08:31:13.735Z,4824
2018-03-24T08:32:14.007Z,4900
2018-03-24T08:33:28.703Z,5040
2018-03-24T08:34:14.035Z,5100
2018-03-24T08:36:13.813Z,5180
2018-03-24T08:37:14.086Z,5172
2018-03-24T08:38:13.843Z,5120
2018-03-24T08:39:28.781Z,5056
2018-03-24T08:41:14.155Z,5100
2018-03-24T08:42:28.574Z,5188
2018-03-24T08:43:13.988Z,5256
2018-03-24T08:44:14.210Z,5352
2018-03-24T08:45:13.960Z,5424
2018-03-24T08:46:14.241Z,5492
2018-03-24T08:47:14.095Z,5576
2018-03-24T08:48:14.275Z,5640
2018-03-24T08:49:14.286Z,5632
2018-03-24T08:50:13.524Z,5592
2018-03-24T08:51:14.329Z,5560
2018-03-24T08:52:14.083Z,5540
2018-03-24T08:53:14.093Z,5556
2018-03-24T08:54:14.110Z,5576
2018-03-24T08:55:14.126Z,5612
2018-03-24T08:56:14.401Z,5652
2018-03-24T08:58:28.838Z,5772
2018-03-24T08:59:13.932Z,5824
2018-03-24T09:00:14.215Z,5864
2018-03-24T09:01:14.491Z,5864
2018-03-24T09:02:14.309Z,5868
2018-03-24T09:04:14.283Z,5916
2018-03-24T09:05:29.210Z,5924
2018-03-24T09:06:14.310Z,5916
2018-03-24T09:07:14.326Z,5924
2018-03-24T09:08:14.603Z,5952
2018-03-24T09:09:14.621Z,5984
2018-03-24T09:10:14.636Z,6028
2018-03-24T09:11:14.661Z,6048
2018-03-24T09:13:14.693Z,6012
2018-03-24T09:14:28.844Z,5980
2018-03-24T09:15:14.819Z,6012
2018-03-24T09:17:29.154Z,6168
2018-03-24T09:18:29.174Z,6232
2018-03-24T09:19:14.533Z,6316
2018-03-24T09:20:29.466Z,6476
2018-03-24T09:21:29.224Z,6580
2018-03-24T09:22:29.503Z,6644
2018-03-24T09:23:14.599Z,6652
2018-03-24T09:24:14.879Z,6644
2018-03-24T09:25:14.888Z,6616
2018-03-24T09:26:14.909Z,6568
2018-03-24T09:27:14.667Z,6528
2018-03-24T09:28:14.686Z,6560
2018-03-24T09:29:14.958Z,6600
2018-03-24T09:30:44.294Z,6644
2018-03-24T09:31:29.395Z,6664
2018-03-24T09:32:15.014Z,6680
2018-03-24T09:33:29.428Z,6656
2018-03-24T09:34:29.444Z,6596
2018-03-24T09:35:29.728Z,6564
2018-03-24T09:36:15.087Z,6540
2018-03-24T09:37:29.237Z,6544
2018-03-24T09:38:15.116Z,6580
2018-03-24T09:39:14.617Z,6668
2018-03-24T09:40:29.815Z,6860
2018-03-24T09:41:14.908Z,6988
2018-03-24T09:42:15.185Z,7164
2018-03-24T09:43:14.944Z,7316
2018-03-24T09:44:29.878Z,7508
2018-03-24T09:45:29.894Z,7648
2018-03-24T09:46:15.272Z,7724
2018-03-24T09:48:15.296Z,7924
2018-03-24T09:50:15.328Z,8124
2018-03-24T09:51:15.348Z,8220
2018-03-24T09:52:15.116Z,8324
2018-03-24T09:53:30.036Z,8440
2018-03-24T09:54:30.048Z,8484
2018-03-24T09:55:15.416Z,8508
2018-03-24T09:56:15.425Z,8520
2018-03-24T09:57:15.446Z,8516
2018-03-24T09:58:15.569Z,8580
2018-03-24T09:59:14.963Z,8728
2018-03-24T10:00:15.239Z,8932
2018-03-24T10:02:15.588Z,9504
2018-03-24T10:03:15.563Z,9780
2018-03-24T10:04:15.311Z,10028
2018-03-24T10:05:15.647Z,10192
2018-03-24T10:06:15.347Z,10252
2018-03-24T10:07:30.281Z,10164
2018-03-24T10:08:15.388Z,10096
2018-03-24T10:09:15.661Z,10000
2018-03-24T10:10:15.421Z,9944
2018-03-24T10:11:15.692Z,9952
2018-03-24T10:12:15.458Z,10004
2018-03-24T10:13:15.475Z,10084
2018-03-24T10:14:15.746Z,10184
2018-03-24T10:15:15.765Z,10280
2018-03-24T10:17:45.120Z,10724
2018-03-24T10:18:30.224Z,10880
2018-03-24T10:19:15.892Z,11004
2018-03-24T10:20:15.856Z,11100
2018-03-24T10:22:15.638Z,11240
2018-03-24T10:23:15.921Z,11344
2018-03-24T10:24:30.594Z,11472
2018-03-24T10:25:15.688Z,11564
2018-03-24T10:26:30.630Z,11772
2018-03-24T10:28:16.002Z,12068
2018-03-24T10:29:16.032Z,12204
2018-03-24T10:30:15.782Z,12332
2018-03-24T10:31:15.538Z,12432
2018-03-24T10:32:30.739Z,12360
2018-03-24T10:33:30.504Z,12192
2018-03-24T10:34:16.120Z,12036
2018-03-24T10:35:16.138Z,11876
2018-03-24T10:36:15.890Z,11712
2018-03-24T10:37:16.179Z,11600
2018-03-24T10:38:16.194Z,11516
2018-03-24T10:39:30.871Z,11492
2018-03-24T10:40:30.893Z,11480
2018-03-24T10:42:30.690Z,11220
2018-03-24T10:43:16.285Z,11048
2018-03-24T10:44:15.792Z,10852
2018-03-24T10:45:16.328Z,10664
2018-03-24T10:46:16.084Z,10476
2018-03-24T10:47:16.102Z,10268
2018-03-24T10:48:16.396Z,10032
2018-03-24T10:49:30.798Z,9428
2018-03-24T10:50:16.159Z,8944
2018-03-24T10:51:30.840Z,8300
2018-03-24T10:52:16.466Z,8140
2018-03-24T10:53:16.222Z,7976
2018-03-24T10:54:16.505Z,7852
2018-03-24T10:55:16.262Z,7932
2018-03-24T10:56:16.275Z,7976
2018-03-24T10:57:30.952Z,7756
2018-03-24T10:58:16.571Z,7564
2018-03-24T10:59:16.592Z,7320
2018-03-24T11:00:16.618Z,7064
2018-03-24T11:01:16.636Z,6820
2018-03-24T11:02:16.655Z,6600
2018-03-24T11:03:16.406Z,6368
2018-03-24T11:04:16.745Z,6212
2018-03-24T11:05:31.365Z,6056
2018-03-24T11:06:16.721Z,6056
2018-03-24T11:07:16.748Z,6076
2018-03-24T11:08:31.160Z,5984
2018-03-24T11:09:16.782Z,5908
2018-03-24T11:10:16.801Z,5804
2018-03-24T11:11:16.875Z,5632
2018-03-24T11:12:16.841Z,5476
2018-03-24T11:13:16.863Z,5480
2018-03-24T11:14:16.610Z,5604
2018-03-24T11:15:16.662Z,5688
2018-03-24T11:16:16.389Z,5756
2018-03-24T11:17:16.928Z,5764
2018-03-24T11:18:16.427Z,5764
2018-03-24T11:19:31.626Z,5812
2018-03-24T11:20:46.304Z,5860
2018-03-24T11:21:17.008Z,5896
2018-03-24T11:22:16.768Z,6020
2018-03-24T11:23:17.041Z,6160
2018-03-24T11:25:16.827Z,6540
2018-03-24T11:26:17.106Z,6800
2018-03-24T11:27:16.857Z,6976
2018-03-24T11:28:17.140Z,7112
2018-03-24T11:29:16.906Z,7128
2018-03-24T11:30:31.571Z,6948
2018-03-24T11:31:17.189Z,6924
2018-03-24T11:32:17.213Z,6992
2018-03-24T11:33:17.236Z,7092
2018-03-24T11:34:17.256Z,7208
2018-03-24T11:36:31.685Z,7348
2018-03-24T11:37:16.783Z,7432
2018-03-24T11:38:16.809Z,7572
2018-03-24T11:39:17.355Z,7712
2018-03-24T11:40:17.097Z,7856
2018-03-24T11:41:17.384Z,7936
2018-03-24T11:42:17.403Z,7960
2018-03-24T11:43:17.412Z,7928
2018-03-24T11:44:32.090Z,7856
2018-03-24T11:45:32.115Z,7828
2018-03-24T11:46:17.470Z,7728
2018-03-24T11:47:17.498Z,7680
2018-03-24T11:48:17.516Z,7676
2018-03-24T11:49:32.187Z,7732
2018-03-24T11:50:17.449Z,7752
2018-03-24T11:51:17.099Z,7768
2018-03-24T11:52:46.901Z,7800
2018-03-24T11:54:17.360Z,7948
2018-03-24T11:55:32.305Z,8304
2018-03-24T11:56:17.790Z,8556
2018-03-24T11:57:17.422Z,8812
2018-03-24T11:58:17.435Z,9016
2018-03-24T11:59:17.770Z,9152
2018-03-24T12:00:32.394Z,9268
2018-03-24T12:01:17.751Z,9292
2018-03-24T12:02:32.435Z,9228
2018-03-24T12:03:17.527Z,9152
2018-03-24T12:04:17.550Z,9076
2018-03-24T12:05:17.834Z,9064
2018-03-24T12:06:17.591Z,9116
2018-03-24T12:07:32.525Z,9184
2018-03-24T12:08:47.203Z,9220
2018-03-24T12:09:17.646Z,9220
2018-03-24T12:10:17.928Z,9212
2018-03-24T12:12:17.801Z,9192
2018-03-24T12:14:17.750Z,9180
2018-03-24T12:15:17.769Z,9220
2018-03-24T12:16:18.041Z,9332
2018-03-24T12:17:17.810Z,9376
2018-03-24T12:18:32.479Z,9464
2018-03-24T12:19:17.837Z,9556
2018-03-24T12:20:18.125Z,9756
2018-03-24T12:21:18.141Z,9960
2018-03-24T12:22:18.290Z,10024
2018-03-24T12:23:18.173Z,9984
2018-03-24T12:24:47.517Z,9864
2018-03-24T12:25:18.223Z,9828
2018-03-24T12:26:17.713Z,9680
2018-03-24T12:27:18.310Z,9580
2018-03-24T12:28:32.680Z,9608
2018-03-24T12:29:18.310Z,9620
2018-03-24T12:30:18.051Z,9668
2018-03-24T12:31:18.075Z,9764
2018-03-24T12:32:18.347Z,9928
2018-03-24T12:33:18.370Z,10096
2018-03-24T12:34:18.395Z,10200
2018-03-24T12:35:18.150Z,10228
2018-03-24T12:36:18.168Z,10208
2018-03-24T12:37:18.455Z,10244
2018-03-24T12:38:18.208Z,10304
2018-03-24T12:39:18.488Z,10520
2018-03-24T12:40:47.826Z,10932
2018-03-24T12:41:18.268Z,11184
2018-03-24T12:42:18.545Z,11408
2018-03-24T12:43:18.669Z,10944
2018-03-24T12:44:18.636Z,11692
2018-03-24T12:45:18.612Z,11968
2018-03-24T12:46:18.625Z,10524
2018-03-24T12:47:18.386Z,10788
2018-03-24T12:48:33.065Z,10124
2018-03-24T12:49:18.686Z,9968
2018-03-24T12:50:33.371Z,10012
2018-03-24T12:51:18.475Z,10052
2018-03-24T12:52:18.486Z,10368
2018-03-24T12:53:18.508Z,10160
2018-03-24T12:54:33.448Z,9956
2018-03-24T12:55:33.467Z,9848
2018-03-24T12:56:18.570Z,9744
2018-03-24T12:58:18.870Z,9560
2018-03-24T12:59:18.892Z,9504
2018-03-24T13:00:18.912Z,9508
2018-03-24T13:01:18.928Z,9512
2018-03-24T13:02:18.952Z,9500
2018-03-24T13:04:18.990Z,9360
2018-03-24T13:05:18.488Z,9272
2018-03-24T13:06:18.770Z,9140
2018-03-24T13:07:19.056Z,9028
2018-03-24T13:08:19.072Z,8988
2018-03-24T13:09:18.575Z,9036
2018-03-24T13:10:33.771Z,9244
2018-03-24T13:11:19.139Z,9032
2018-03-24T13:12:18.643Z,8832
2018-03-24T13:13:18.653Z,8696
2018-03-24T13:14:18.951Z,8704
2018-03-24T13:16:19.235Z,8756
2018-03-24T13:17:33.916Z,8572
2018-03-24T13:18:19.013Z,8508
2018-03-24T13:19:19.290Z,8556
2018-03-24T13:20:19.311Z,9684
2018-03-24T13:21:33.741Z,11300
2018-03-24T13:22:19.094Z,11448
2018-03-24T13:23:19.117Z,11472
2018-03-24T13:24:19.391Z,11472
2018-03-24T13:25:19.412Z,11048
2018-03-24T13:26:19.432Z,10940
2018-03-24T13:27:34.123Z,10724
2018-03-24T13:28:19.478Z,10104
2018-03-24T13:30:19.510Z,9232
2018-03-24T13:31:19.276Z,9372
2018-03-24T13:32:33.958Z,10116
2018-03-24T13:33:19.573Z,9620
2018-03-24T13:34:19.351Z,9348
2018-03-24T13:35:19.610Z,8920
2018-03-24T13:36:19.640Z,8680
2018-03-24T13:37:19.654Z,8544
2018-03-24T13:38:19.779Z,8476
2018-03-24T13:40:19.722Z,9068
2018-03-24T13:41:19.736Z,8280
2018-03-24T13:42:19.497Z,8140
2018-03-24T13:43:34.435Z,8076
2018-03-24T13:44:19.820Z,7976
2018-03-24T13:45:19.822Z,7768
2018-03-24T13:46:19.326Z,7628
2018-03-24T13:47:19.858Z,7536
2018-03-24T13:48:19.881Z,7568
2018-03-24T13:49:19.901Z,7504
2018-03-24T13:50:19.925Z,7568
2018-03-24T13:51:19.945Z,8352
2018-03-24T13:52:19.444Z,7912
2018-03-24T13:53:19.980Z,8340
2018-03-24T13:54:20.003Z,7888
2018-03-24T13:55:20.025Z,7864
2018-03-24T13:56:20.130Z,7732
2018-03-24T13:57:34.722Z,7516
2018-03-24T13:59:49.422Z,7736
2018-03-24T14:00:20.121Z,7748
2018-03-24T14:03:34.582Z,7820
2018-03-24T14:04:20.208Z,7380
2018-03-24T14:05:20.224Z,7440
2018-03-24T14:06:19.992Z,7268
2018-03-24T14:07:20.275Z,8360
2018-03-24T14:08:20.287Z,8064
2018-03-24T14:09:34.710Z,8636
2018-03-24T14:10:20.325Z,8580
2018-03-24T14:11:20.086Z,8112
2018-03-24T14:12:20.368Z,8180
2018-03-24T14:13:35.046Z,8408
2018-03-24T14:14:20.412Z,8576
2018-03-24T14:15:34.568Z,8624
2018-03-24T14:16:20.186Z,8912
2018-03-24T14:17:20.471Z,8456
2018-03-24T14:18:20.486Z,8984
2018-03-24T14:19:19.993Z,9212
2018-03-24T14:20:20.531Z,9164
2018-03-24T14:21:20.553Z,9164
2018-03-24T14:22:20.312Z,9096
2018-03-24T14:23:35.252Z,9012
2018-03-24T14:24:20.626Z,9084
2018-03-24T14:25:20.631Z,9204
2018-03-24T14:26:20.391Z,9128
2018-03-24T14:27:20.674Z,9020
2018-03-24T14:29:20.197Z,8960
2018-03-24T14:30:35.396Z,8748
2018-03-24T14:31:20.501Z,8768
2018-03-24T14:32:20.782Z,8760
2018-03-24T14:34:20.834Z,8676
2018-03-24T14:35:20.841Z,8616
2018-03-24T14:36:35.518Z,8568
2018-03-24T14:37:35.279Z,8480
2018-03-24T14:38:20.641Z,8436
2018-03-24T14:39:35.578Z,8192
2018-03-24T14:40:35.340Z,8212
2018-03-24T14:41:20.704Z,8172
2018-03-24T14:42:35.741Z,7960